Time;durP1;ratioP1;P1;durP2;ratioP2;P2;SDS_P1;SDS_P2;PMS_P1;PMS_P2;Temp;Humidity;BMP_temperature;BMP_pressure;BME280_temperature;BME280_humidity;BME280_pressure;Samples;Min_cycle;Max_cycle;Signal;HPM_P1;HPM_P2
2023/12/06 00:04:36;;;;;;;1.27;1.17;;;;;;;0.10;82.86;100565.22;15722856;28;20076;-46
2023/12/06 00:12:14;;;;;;;0.10;0.10;;;;;;;0.42;81.95;100553.34;15746104;28;20064;-47
2023/12/06 00:19:50;;;;;;;1.83;1.70;;;;;;;0.18;83.04;100554.75;15742324;28;20039;-49
2023/12/06 00:27:27;;;;;;;0.38;0.38;;;;;;;0.41;82.49;100554.34;15727056;28;20395;-47
2023/12/06 00:35:05;;;;;;;1.70;1.50;;;;;;;0.34;82.23;100567.31;15721330;28;20037;-49
2023/12/06 00:42:38;;;;;;;0.88;0.82;;;;;;;0.74;81.07;100558.97;15742826;28;20418;-47
2023/12/06 00:50:18;;;;;;;0.90;0.85;;;;;;;0.46;81.46;100562.63;15743091;28;20071;-47
2023/12/06 00:57:51;;;;;;;0.75;0.75;;;;;;;0.49;82.13;100572.91;15726932;28;20109;-47
2023/12/06 01:05:27;;;;;;;2.20;1.75;;;;;;;0.58;82.25;100573.84;15743953;28;20131;-47
2023/12/06 01:13:00;;;;;;;0.30;0.30;;;;;;;0.38;83.17;100576.59;15726572;28;20514;-50
2023/12/06 01:20:38;;;;;;;0.10;0.10;;;;;;;0.47;83.71;100591.56;15738863;28;20290;-47
2023/12/06 01:28:12;;;;;;;3.20;1.13;;;;;;;0.69;82.18;100592.91;15741897;28;20438;-54
2023/12/06 01:35:50;;;;;;;2.53;1.38;;;;;;;0.48;82.57;100595.03;15743469;28;20525;-47
2023/12/06 01:43:23;;;;;;;1.08;0.98;;;;;;;0.41;83.46;100580.75;15740988;28;20084;-50
2023/12/06 01:51:00;;;;;;;0.95;0.95;;;;;;;0.40;83.53;100601.03;15743793;28;20116;-50
2023/12/06 01:58:37;;;;;;;0.30;0.30;;;;;;;0.55;83.83;100585.50;15740239;28;20560;-50
2023/12/06 02:06:12;;;;;;;2.05;1.75;;;;;;;0.61;82.69;100584.13;15721098;28;20124;-51
2023/12/06 02:13:48;;;;;;;0.50;0.50;;;;;;;0.46;83.31;100581.13;15736418;28;20530;-47
2023/12/06 02:21:24;;;;;;;0.32;0.32;;;;;;;0.43;82.79;100565.59;15738347;28;20052;-48
2023/12/06 02:29:02;;;;;;;3.65;1.55;;;;;;;0.52;83.23;100571.81;15703058;28;20098;-45
2023/12/06 02:36:37;;;;;;;0.73;0.73;;;;;;;0.50;83.53;100580.69;15736956;28;20049;-48
2023/12/06 02:44:12;;;;;;;1.95;0.82;;;;;;;0.55;83.88;100580.22;15739619;28;20040;-48
2023/12/06 02:51:46;;;;;;;0.55;0.55;;;;;;;0.93;82.61;100576.50;15735637;28;20511;-46
2023/12/06 02:59:21;;;;;;;1.13;0.73;;;;;;;0.70;83.05;100567.34;15735506;28;20388;-48
2023/12/06 03:06:56;;;;;;;0.43;0.43;;;;;;;0.71;82.36;100563.75;15709677;28;20044;-49
2023/12/06 03:14:33;;;;;;;2.17;0.85;;;;;;;0.75;82.52;100557.19;15735647;28;20707;-45
2023/12/06 03:22:11;;;;;;;0.20;0.20;;;;;;;0.65;83.09;100556.41;15733592;28;20131;-45
2023/12/06 03:29:48;;;;;;;0.35;0.35;;;;;;;0.71;84.02;100556.63;15735159;28;20564;-47
2023/12/06 03:37:22;;;;;;;2.33;1.77;;;;;;;0.72;83.44;100550.38;15734537;28;20045;-46
2023/12/06 03:44:57;;;;;;;0.10;0.10;;;;;;;0.70;83.31;100549.69;15716621;28;20098;-46
2023/12/06 03:52:34;;;;;;;4.30;0.70;;;;;;;0.63;84.21;100551.28;15733635;28;20136;-48
2023/12/06 04:00:13;;;;;;;1.02;1.02;;;;;;;0.57;84.59;100559.81;15733292;28;20044;-47
2023/12/06 04:07:55;;;;;;;0.10;0.10;;;;;;;0.81;83.13;100572.41;15734170;28;20048;-47
2023/12/06 04:15:35;;;;;;;0.17;0.17;;;;;;;0.83;84.08;100565.16;15734128;28;20036;-45
2023/12/06 04:23:11;;;;;;;0.20;0.20;;;;;;;0.91;83.51;100575.81;15715704;28;20395;-46
2023/12/06 04:30:47;;;;;;;2.83;2.63;;;;;;;0.57;84.12;100557.16;15732493;28;20071;-45
2023/12/06 04:38:20;;;;;;;4.85;1.67;;;;;;;0.79;83.13;100569.06;15716271;28;20066;-46
2023/12/06 04:45:56;;;;;;;0.00;0.00;;;;;;;0.77;84.07;100571.88;15729523;28;20048;-46
2023/12/06 04:53:31;;;;;;;1.52;1.42;;;;;;;0.87;83.58;100561.22;15725163;28;20049;-49
2023/12/06 05:01:08;;;;;;;0.98;0.98;;;;;;;0.77;84.43;100566.59;15745173;28;20052;-48
2023/12/06 05:08:43;;;;;;;0.25;0.25;;;;;;;0.67;84.17;100565.84;15742725;28;20063;-49
2023/12/06 05:16:18;;;;;;;0.38;0.38;;;;;;;0.64;84.49;100560.03;15721785;28;20523;-47
2023/12/06 05:23:51;;;;;;;0.35;0.35;;;;;;;0.45;84.86;100567.09;15742125;28;20040;-47
2023/12/06 05:31:26;;;;;;;0.22;0.22;;;;;;;0.47;85.65;100554.59;15740693;28;20055;-45
2023/12/06 05:39:05;;;;;;;2.13;1.90;;;;;;;0.91;83.98;100561.75;15723576;28;20495;-47
2023/12/06 05:46:43;;;;;;;1.15;0.70;;;;;;;1.02;82.75;100562.34;15746728;28;20037;-49
2023/12/06 05:54:17;;;;;;;0.80;0.77;;;;;;;0.89;83.28;100572.50;15724043;28;20055;-51
2023/12/06 06:01:55;;;;;;;0.40;0.40;;;;;;;0.59;84.81;100576.31;15731189;28;20127;-51
2023/12/06 06:09:29;;;;;;;0.03;0.03;;;;;;;0.77;84.97;100578.97;15739780;28;20563;-50
2023/12/06 06:17:04;;;;;;;2.67;2.47;;;;;;;0.46;85.95;100575.84;15735249;28;20144;-49
2023/12/06 06:24:38;;;;;;;0.20;0.20;;;;;;;0.92;84.78;100585.38;15737565;28;20075;-47
2023/12/06 06:32:13;;;;;;;;;;;;;;;0.69;84.77;100582.34;15738185;28;20048;-51
2023/12/06 06:39:47;;;;;;;0.82;0.82;;;;;;;0.65;85.12;100585.44;15719025;28;19962;-50
2023/12/06 06:47:23;;;;;;;0.17;0.17;;;;;;;0.53;85.46;100594.59;15743103;28;20047;-50
2023/12/06 06:54:57;;;;;;;0.85;0.85;;;;;;;0.84;85.10;100592.41;15729650;28;20151;-49
2023/12/06 07:02:33;;;;;;;2.00;1.35;;;;;;;0.64;85.46;100597.81;15736019;28;20422;-50
2023/12/06 07:10:09;;;;;;;6.70;1.85;;;;;;;0.62;85.40;100610.38;15736853;28;20044;-46
2023/12/06 07:17:46;;;;;;;0.63;0.63;;;;;;;0.70;85.14;100625.44;15732636;28;20040;-50
2023/12/06 07:25:22;;;;;;;1.77;1.65;;;;;;;0.94;83.43;100620.44;15735536;28;20105;-46
2023/12/06 07:33:01;;;;;;;1.95;1.77;;;;;;;0.74;84.68;100632.94;15728734;28;20082;-48
2023/12/06 07:40:36;;;;;;;1.85;1.75;;;;;;;0.80;83.17;100635.97;15738248;28;20462;-52
2023/12/06 07:48:11;;;;;;;0.22;0.22;;;;;;;0.94;83.96;100638.94;15727111;28;20128;-49
2023/12/06 07:55:45;;;;;;;1.63;1.52;;;;;;;0.73;84.09;100646.28;15737772;28;20403;-50
2023/12/06 08:03:26;;;;;;;0.43;0.43;;;;;;;0.94;83.65;100643.38;15736439;28;20072;-50
2023/12/06 08:11:01;;;;;;;1.05;1.02;;;;;;;1.11;83.46;100645.19;15729566;28;20040;-50
2023/12/06 08:18:36;;;;;;;1.23;1.23;;;;;;;1.17;82.56;100654.34;15733488;28;20479;-49
2023/12/06 08:26:12;;;;;;;11.50;2.47;;;;;;;1.16;81.83;100634.16;15728408;28;20102;-49
2023/12/06 08:33:47;;;;;;;1.70;1.42;;;;;;;0.77;83.77;100664.34;15748224;28;20032;-50
2023/12/06 08:41:23;;;;;;;0.15;0.15;;;;;;;0.97;83.11;100664.22;15745466;28;20554;-50
2023/12/06 08:49:01;;;;;;;0.20;0.20;;;;;;;1.12;82.32;100661.88;15739864;28;20052;-50
2023/12/06 08:56:34;;;;;;;1.40;1.30;;;;;;;1.00;83.46;100661.28;15743889;28;20476;-51
2023/12/06 09:04:10;;;;;;;2.47;2.28;;;;;;;1.36;81.57;100664.75;15746129;28;20128;-51
2023/12/06 09:11:47;;;;;;;0.00;0.00;;;;;;;1.19;83.13;100669.06;15730036;28;20403;-50
2023/12/06 09:19:26;;;;;;;2.35;2.15;;;;;;;1.43;80.79;100686.13;15744322;28;20051;-51
2023/12/06 09:26:59;;;;;;;3.00;1.58;;;;;;;1.40;80.81;100684.63;15726235;28;20056;-49
2023/12/06 09:34:35;;;;;;;0.10;0.10;;;;;;;1.34;81.70;100693.16;15724754;28;20040;-49
2023/12/06 09:42:12;;;;;;;0.70;0.70;;;;;;;1.53;81.46;100687.69;15742044;28;20080;-53
2023/12/06 09:49:47;;;;;;;4.47;3.40;;;;;;;1.51;81.30;100688.84;15746374;28;20048;-50
2023/12/06 09:57:20;;;;;;;0.45;0.45;;;;;;;1.86;80.66;100697.69;15743547;28;20032;-52
2023/12/06 10:04:59;;;;;;;0.90;0.73;;;;;;;1.75;81.26;100690.84;15717181;28;20139;-52
2023/12/06 10:12:34;;;;;;;0.63;0.63;;;;;;;1.65;80.56;100692.75;15707206;28;20137;-51
2023/12/06 10:20:12;;;;;;;0.80;0.80;;;;;;;1.51;80.78;100665.03;15736100;28;20071;-51
2023/12/06 10:27:45;;;;;;;0.50;0.50;;;;;;;2.09;79.22;100690.06;15737014;28;20048;-53
2023/12/06 10:35:24;;;;;;;1.98;1.77;;;;;;;1.49;80.78;100681.06;15705249;28;20050;-48
2023/12/06 10:43:03;;;;;;;2.17;1.25;;;;;;;1.45;81.83;100686.81;15695702;28;20147;-50
2023/12/06 10:50:39;;;;;;;0.10;0.10;;;;;;;1.69;80.56;100689.66;15741074;28;20410;-49
2023/12/06 10:58:16;;;;;;;0.13;0.13;;;;;;;1.50;80.35;100618.41;15723894;28;20075;-50
2023/12/06 11:05:54;;;;;;;1.45;1.35;;;;;;;2.03;79.32;100675.66;15704049;28;20417;-49
2023/12/06 11:13:39;;;;;;;0.52;0.52;;;;;;;2.13;79.31;100672.88;15734696;28;20475;-52
2023/12/06 11:21:14;;;;;;;1.70;1.55;;;;;;;2.06;79.93;100675.34;15734819;28;20040;-50
2023/12/06 11:28:49;;;;;;;0.10;0.10;;;;;;;2.26;77.33;100675.94;15719641;28;20036;-47
2023/12/06 11:36:24;;;;;;;3.33;2.95;;;;;;;1.90;79.29;100669.94;15738978;28;20040;-52
2023/12/06 11:43:59;;;;;;;0.30;0.30;;;;;;;2.34;78.10;100678.63;15731586;28;20106;-53
2023/12/06 11:51:35;;;;;;;2.05;1.85;;;;;;;2.06;79.03;100682.47;15759786;22;20082;-73
2023/12/06 11:59:10;;;;;;;0.40;0.40;;;;;;;1.74;78.89;100687.38;15733011;28;20045;-73
2023/12/06 12:06:45;;;;;;;3.75;3.03;;;;;;;2.08;78.55;100681.31;15722213;28;20052;-73
2023/12/06 12:14:18;;;;;;;1.75;1.65;;;;;;;1.96;79.25;100685.22;15750545;28;20448;-70
2023/12/06 12:22:01;;;;;;;6.05;0.82;;;;;;;1.98;79.33;100681.41;15722206;28;20048;-74
2023/12/06 12:29:35;;;;;;;0.93;0.88;;;;;;;2.21;78.60;100679.06;15728149;28;20044;-74
2023/12/06 12:37:10;;;;;;;0.30;0.30;;;;;;;2.22;79.16;100682.53;15739468;28;20044;-73
2023/12/06 12:44:43;;;;;;;3.13;0.88;;;;;;;2.33;78.65;100690.19;15723939;28;20389;-73
2023/12/06 12:52:18;;;;;;;0.50;0.50;;;;;;;2.22;78.47;100683.38;15730608;28;20060;-73
2023/12/06 12:59:53;;;;;;;0.65;0.32;;;;;;;1.79;80.64;100708.06;15744613;28;20047;-72
2023/12/06 13:07:28;;;;;;;1.30;0.80;;;;;;;2.49;78.57;100714.13;15746481;28;20068;-74
2023/12/06 13:15:01;;;;;;;1.27;1.17;;;;;;;2.58;78.04;100717.66;15747513;28;20055;-74
2023/12/06 13:22:36;;;;;;;;;;;;;;;2.84;76.89;100709.63;15708963;28;20049;-75
2023/12/06 13:30:10;;;;;;;4.22;1.25;;;;;;;1.94;80.38;100722.41;15703990;28;19971;-74
2023/12/06 13:37:45;;;;;;;0.88;0.80;;;;;;;2.41;79.06;100729.97;15730938;28;20045;-74
2023/12/06 13:45:18;;;;;;;5.47;2.50;;;;;;;2.33;79.20;100731.75;15732069;28;20044;-74
2023/12/06 13:52:53;;;;;;;;;;;;;;;2.54;78.51;100737.50;15725625;28;20049;-74
2023/12/06 14:00:26;;;;;;;0.45;0.45;;;;;;;2.37;79.57;100738.41;15708214;28;20392;-74
2023/12/06 14:08:01;;;;;;;4.78;2.00;;;;;;;2.44;80.62;100739.44;15744544;28;20115;-73
2023/12/06 14:15:34;;;;;;;1.50;1.40;;;;;;;2.27;80.85;100749.94;15723662;28;20049;-74
2023/12/06 14:23:08;;;;;;;0.32;0.32;;;;;;;2.32;80.45;100762.72;15725282;28;20041;-72
2023/12/06 14:30:42;;;;;;;0.45;0.45;;;;;;;2.62;79.83;100768.53;15703732;28;20431;-72
2023/12/06 14:38:16;;;;;;;;;;;;;;;2.43;80.91;100773.06;15716582;28;20048;-73
2023/12/06 14:45:53;;;;;;;0.93;0.93;;;;;;;2.70;79.72;100785.28;15719177;28;19960;-73
2023/12/06 14:53:28;;;;;;;0.50;0.50;;;;;;;2.79;78.83;100791.44;15709682;28;20163;-72
2023/12/06 15:01:01;;;;;;;1.90;1.65;;;;;;;2.71;78.97;100802.03;15742380;28;20464;-73
2023/12/06 15:08:37;;;;;;;0.00;0.00;;;;;;;2.78;78.82;100813.66;15706813;28;20052;-71
2023/12/06 15:16:11;;;;;;;0.43;0.43;;;;;;;2.46;81.12;100815.09;15704105;28;20091;-72
2023/12/06 15:23:47;;;;;;;0.30;0.30;;;;;;;2.59;80.61;100830.59;15725659;28;20459;-72
2023/12/06 15:31:22;;;;;;;0.93;0.93;;;;;;;3.03;79.36;100833.16;15739559;28;20193;-72
2023/12/06 15:38:59;;;;;;;0.15;0.15;;;;;;;2.45;80.71;100839.13;15742316;28;20100;-73
2023/12/06 15:46:33;;;;;;;1.48;1.30;;;;;;;2.25;81.46;100846.44;15721590;28;20045;-72
2023/12/06 15:54:08;;;;;;;;;;;;;;;2.61;80.44;100860.44;15745220;28;20155;-72
2023/12/06 16:01:42;;;;;;;0.90;0.90;;;;;;;2.69;79.84;100864.94;15756448;28;19924;-72
2023/12/06 16:09:18;;;;;;;0.05;0.05;;;;;;;2.33;81.35;100865.00;15753837;28;20551;-73
2023/12/06 16:16:51;;;;;;;1.75;0.95;;;;;;;2.18;82.51;100890.38;15732565;28;20033;-72
2023/12/06 16:24:27;;;;;;;2.47;2.22;;;;;;;1.64;83.92;100903.59;15731476;28;20097;-72
2023/12/06 16:32:00;;;;;;;4.68;4.13;;;;;;;1.76;84.48;100902.38;15762291;28;20105;-73
2023/12/06 16:39:35;;;;;;;1.80;0.93;;;;;;;1.82;83.74;100916.84;15736081;28;20053;-74
2023/12/06 16:47:08;;;;;;;0.10;0.10;;;;;;;2.55;81.58;100925.47;15763952;28;20508;-72
2023/12/06 16:54:45;;;;;;;;;;;;;;;2.52;81.06;100924.97;15710400;28;20045;-74
2023/12/06 17:02:19;;;;;;;2.95;0.47;;;;;;;2.83;80.68;100925.34;15758706;28;19927;-73
2023/12/06 17:09:54;;;;;;;0.10;0.10;;;;;;;2.11;81.60;100943.13;15785650;28;20108;-74
2023/12/06 17:17:27;;;;;;;0.75;0.73;;;;;;;2.51;80.79;100941.81;15791291;28;20037;-73
2023/12/06 17:25:03;;;;;;;0.13;0.13;;;;;;;2.81;79.88;100953.81;15730986;28;20520;-72
2023/12/06 17:32:37;;;;;;;0.13;0.13;;;;;;;2.73;79.78;100970.50;15743559;28;20088;-74
2023/12/06 17:40:12;;;;;;;1.05;1.02;;;;;;;2.87;80.07;100973.59;15692826;28;20144;-73
2023/12/06 17:47:48;;;;;;;0.15;0.15;;;;;;;2.76;79.66;100977.31;15692612;28;20064;-73
2023/12/06 17:55:23;;;;;;;2.53;1.00;;;;;;;1.78;83.46;100989.56;15736086;28;20057;-71
2023/12/06 18:02:58;;;;;;;2.28;2.03;;;;;;;2.01;81.78;100993.50;15726784;28;20112;-72
2023/12/06 18:10:34;;;;;;;1.10;0.93;;;;;;;1.73;82.26;101007.72;15738708;28;20055;-72
2023/12/06 18:18:07;;;;;;;1.77;1.15;;;;;;;2.53;80.01;101003.44;15708401;28;20416;-71
2023/12/06 18:25:42;;;;;;;0.38;0.38;;;;;;;2.78;79.41;101012.44;15737071;28;20423;-73
2023/12/06 18:33:18;;;;;;;0.15;0.15;;;;;;;2.74;79.37;101025.16;15684595;28;20547;-72
2023/12/06 18:40:53;;;;;;;0.55;0.55;;;;;;;2.71;79.58;101035.25;15740872;28;20032;-72
2023/12/06 18:48:26;;;;;;;1.00;0.93;;;;;;;1.60;82.83;101037.13;15744603;28;20056;-73
2023/12/06 18:56:03;;;;;;;2.03;1.92;;;;;;;2.14;81.15;101054.00;15724138;28;20135;-74
2023/12/06 19:03:36;;;;;;;0.17;0.17;;;;;;;2.20;81.72;101060.56;15688390;28;20428;-70
2023/12/06 19:11:15;;;;;;;0.10;0.10;;;;;;;2.45;80.35;101075.72;15737365;28;20044;-73
2023/12/06 19:18:50;;;;;;;0.60;0.60;;;;;;;2.48;79.98;101077.25;15721104;28;20412;-73
2023/12/06 19:26:25;;;;;;;1.27;1.23;;;;;;;2.92;78.83;101085.31;15704118;28;20049;-74
2023/12/06 19:33:58;;;;;;;0.43;0.43;;;;;;;2.57;79.57;101096.72;15699404;28;20053;-74
2023/12/06 19:41:33;;;;;;;0.52;0.52;;;;;;;2.51;78.84;101100.78;15693725;28;20045;-74
2023/12/06 19:49:08;;;;;;;0.20;0.20;;;;;;;2.22;79.36;101107.09;15724759;28;20052;-72
2023/12/06 19:56:44;;;;;;;0.65;0.65;;;;;;;2.85;78.46;101101.00;15703256;23;20424;-48
2023/12/06 20:04:19;;;;;;;0.05;0.05;;;;;;;2.78;77.97;101107.88;15674438;28;20044;-50
2023/12/06 20:11:54;;;;;;;0.25;0.25;;;;;;;2.81;77.45;101108.41;15674316;28;20490;-56
2023/12/06 20:19:27;;;;;;;0.10;0.10;;;;;;;2.55;78.36;101120.72;15678574;28;20053;-52
2023/12/06 20:27:04;;;;;;;0.55;0.55;;;;;;;2.59;78.22;101127.38;15666877;28;20557;-54
2023/12/06 20:34:38;;;;;;;1.45;1.38;;;;;;;2.24;78.41;101138.75;15672455;28;20046;-56
2023/12/06 20:42:13;;;;;;;0.63;0.63;;;;;;;1.92;80.07;101150.56;15682772;28;20051;-54
2023/12/06 20:49:47;;;;;;;0.68;0.68;;;;;;;2.33;79.28;101147.59;15658905;28;20056;-48
2023/12/06 20:57:22;;;;;;;0.20;0.20;;;;;;;2.41;79.60;101151.19;15663759;28;20562;-51
2023/12/06 21:04:57;;;;;;;0.10;0.10;;;;;;;2.37;79.47;101162.22;15662541;28;20132;-50
2023/12/06 21:12:32;;;;;;;0.47;0.40;;;;;;;1.96;78.93;101129.94;15679640;28;20067;-55
2023/12/06 21:20:07;;;;;;;0.10;0.10;;;;;;;1.82;79.76;101162.13;15679125;28;20143;-50
2023/12/06 21:27:42;;;;;;;1.30;1.20;;;;;;;1.84;80.21;101174.25;15661487;28;20121;-51
2023/12/06 21:35:15;;;;;;;0.10;0.10;;;;;;;2.28;79.17;101180.69;15668154;28;20053;-51
2023/12/06 21:42:53;;;;;;;0.68;0.68;;;;;;;1.91;79.63;101185.94;15677644;28;20165;-51
2023/12/06 21:50:26;;;;;;;0.40;0.40;;;;;;;2.34;78.59;101187.19;15671480;28;20073;-51
2023/12/06 21:58:02;;;;;;;0.10;0.10;;;;;;;1.81;79.41;101192.22;15655364;28;20048;-52
2023/12/06 22:05:35;;;;;;;0.52;0.52;;;;;;;2.13;78.96;101190.03;15654699;28;20579;-51
2023/12/06 22:13:13;;;;;;;0.15;0.15;;;;;;;2.32;78.10;101185.66;15661306;28;20038;-53
2023/12/06 22:20:48;;;;;;;0.47;0.47;;;;;;;2.17;78.13;101209.13;15677461;28;20045;-52
2023/12/06 22:28:24;;;;;;;0.00;0.00;;;;;;;2.32;77.55;101212.16;15677877;28;20048;-48
2023/12/06 22:35:57;;;;;;;0.10;0.10;;;;;;;2.10;78.29;101211.53;15668092;28;20053;-53
2023/12/06 22:43:32;;;;;;;;;;;;;;;2.29;77.81;101216.78;15677249;28;20119;-49
2023/12/06 22:51:05;;;;;;;0.15;0.15;;;;;;;2.00;78.75;101224.78;15670487;28;20019;-51
2023/12/06 22:58:42;;;;;;;0.20;0.20;;;;;;;2.06;78.52;101225.22;15675584;28;20041;-52
2023/12/06 23:06:15;;;;;;;2.10;1.17;;;;;;;2.12;78.52;101227.28;15671976;28;20053;-51
2023/12/06 23:13:51;;;;;;;0.63;0.63;;;;;;;1.93;78.67;101228.97;15655635;28;20533;-49
2023/12/06 23:21:25;;;;;;;0.90;0.90;;;;;;;2.00;78.42;101229.22;15655143;28;20103;-52
2023/12/06 23:28:59;;;;;;;;;;;;;;;1.85;79.28;101228.00;15673228;28;20037;-47
2023/12/06 23:36:33;;;;;;;0.30;0.30;;;;;;;1.86;78.83;101235.81;15644621;28;20379;-51
2023/12/06 23:44:07;;;;;;;;;;;;;;;2.11;78.87;101242.34;15670641;28;20041;-49
2023/12/06 23:51:40;;;;;;;0.00;0.00;;;;;;;1.93;78.56;101249.31;15651860;28;19921;-51
2023/12/06 23:59:15;;;;;;;0.55;0.55;;;;;;;1.73;78.98;101249.34;15684992;28;20037;-50
